createdAt,value
2023-07-03T00:00:40.380Z,20.40
2023-07-03T00:03:07.908Z,20.30
2023-07-03T00:05:36.456Z,20.40
2023-07-03T00:08:03.970Z,20.40
2023-07-03T00:10:31.427Z,20.30
2023-07-03T00:12:58.918Z,20.40
2023-07-03T00:15:26.382Z,20.40
2023-07-03T00:17:53.926Z,20.50
2023-07-03T00:20:21.467Z,20.60
2023-07-03T00:22:49.587Z,20.50
2023-07-03T00:25:17.160Z,20.40
2023-07-03T00:27:45.754Z,20.50
2023-07-03T00:30:14.488Z,20.50
2023-07-03T00:32:42.099Z,20.50
2023-07-03T00:35:10.072Z,20.40
2023-07-03T00:37:37.543Z,20.40
2023-07-03T00:40:08.386Z,20.40
2023-07-03T00:42:36.148Z,20.30
2023-07-03T00:45:10.058Z,20.30
2023-07-03T00:47:39.609Z,20.40
2023-07-03T00:50:08.088Z,20.30
2023-07-03T00:52:35.829Z,20.40
2023-07-03T00:55:04.490Z,20.60
2023-07-03T00:57:32.525Z,20.30
2023-07-03T01:00:01.082Z,20.40
2023-07-03T01:03:03.704Z,20.30
2023-07-03T01:05:41.557Z,20.40
2023-07-03T01:08:13.107Z,20.40
2023-07-03T01:10:42.658Z,20.40
2023-07-03T01:13:18.757Z,20.40
2023-07-03T01:15:48.202Z,20.30
2023-07-03T01:18:16.902Z,20.20
2023-07-03T01:21:23.755Z,20.30
2023-07-03T01:24:18.772Z,20.20
2023-07-03T01:26:47.943Z,20.30
2023-07-03T01:29:17.552Z,20.20
2023-07-03T01:31:46.150Z,20.40
2023-07-03T01:34:14.498Z,20.30
2023-07-03T01:36:43.284Z,20.40
2023-07-03T01:39:11.309Z,20.40
2023-07-03T01:41:39.843Z,20.40
2023-07-03T01:44:07.901Z,20.30
2023-07-03T01:46:36.358Z,20.30
2023-07-03T01:49:04.002Z,20.40
2023-07-03T01:52:23.109Z,20.50
2023-07-03T01:55:21.837Z,20.50
2023-07-03T01:58:33.972Z,20.60
2023-07-03T02:01:23.077Z,20.60
2023-07-03T02:04:12.067Z,20.60
2023-07-03T02:06:45.860Z,20.60
2023-07-03T04:43:53.015Z,18.80
2023-07-03T04:46:25.217Z,18.90
2023-07-03T04:49:00.706Z,19.10
2023-07-03T04:51:32.639Z,19.30
2023-07-03T04:54:02.108Z,19.30
2023-07-03T04:56:33.630Z,19.20
2023-07-03T04:59:01.221Z,19.20
2023-07-03T05:11:17.996Z,19.30
2023-07-03T05:13:45.727Z,19.40
2023-07-03T05:16:13.328Z,19.20
2023-07-03T05:18:41.525Z,19.50
2023-07-03T05:21:09.477Z,19.50
2023-07-03T05:23:37.403Z,19.50
2023-07-03T05:26:05.339Z,19.60
2023-07-03T05:28:33.436Z,19.70
2023-07-03T05:31:01.886Z,19.50
2023-07-03T05:33:31.768Z,19.40
2023-07-03T05:36:03.761Z,19.60
2023-07-03T05:38:32.097Z,19.60
2023-07-03T05:40:59.622Z,19.50
2023-07-03T05:43:28.136Z,19.60
2023-07-03T05:45:55.660Z,19.40
2023-07-03T05:48:26.013Z,19.60
2023-07-03T05:50:53.580Z,19.50
2023-07-03T05:53:22.573Z,19.70
2023-07-03T05:55:59.485Z,19.80
2023-07-03T05:58:28.977Z,19.80
2023-07-03T06:00:57.058Z,19.80
2023-07-03T06:03:26.415Z,19.70
2023-07-03T06:05:54.356Z,19.40
2023-07-03T06:08:22.162Z,19.50
2023-07-03T06:10:49.631Z,19.60
2023-07-03T06:13:17.877Z,19.60
2023-07-03T06:15:45.733Z,19.70
2023-07-03T06:18:13.469Z,19.80
2023-07-03T06:20:41.017Z,19.80
2023-07-03T06:23:08.669Z,19.80
2023-07-03T06:25:36.249Z,19.50
2023-07-03T06:28:04.251Z,19.80
2023-07-03T06:30:31.742Z,19.80
2023-07-03T06:32:59.292Z,19.80
2023-07-03T06:35:27.255Z,19.90
2023-07-03T06:37:57.338Z,20.00
2023-07-03T06:40:25.010Z,19.60
2023-07-03T06:42:54.475Z,19.70
2023-07-03T06:45:22.017Z,19.70
2023-07-03T06:47:49.585Z,19.50
2023-07-03T06:50:17.658Z,19.50
2023-07-03T06:52:48.670Z,19.50
2023-07-03T06:55:16.317Z,19.50
2023-07-03T06:57:43.868Z,19.80
2023-07-03T07:00:12.506Z,19.70
2023-07-03T07:02:40.176Z,19.70
2023-07-03T07:05:08.578Z,19.90
2023-07-03T07:07:36.173Z,19.90
2023-07-03T07:10:04.543Z,19.70
2023-07-03T07:12:32.080Z,19.70
2023-07-03T07:14:59.562Z,19.60
2023-07-03T07:17:35.591Z,19.60
2023-07-03T07:20:14.156Z,19.90
2023-07-03T07:22:41.623Z,19.80
2023-07-03T07:25:09.723Z,19.70
2023-07-03T07:27:37.226Z,20.00
2023-07-03T07:30:05.568Z,20.10
2023-07-03T07:32:33.048Z,20.00
2023-07-03T07:35:00.558Z,20.10
2023-07-03T07:37:28.001Z,20.30
2023-07-03T07:39:55.446Z,20.20
2023-07-03T07:42:22.953Z,20.40
2023-07-03T07:44:50.559Z,20.40
2023-07-03T07:47:18.045Z,20.30
2023-07-03T07:49:46.127Z,20.30
2023-07-03T07:52:13.686Z,20.30
2023-07-03T07:54:41.178Z,20.10
2023-07-03T07:57:08.975Z,20.10
2023-07-03T07:59:37.456Z,20.30
2023-07-03T08:02:05.404Z,20.10
2023-07-03T08:04:34.539Z,20.60
2023-07-03T08:07:02.215Z,20.50
2023-07-03T08:09:29.743Z,20.60
2023-07-03T08:11:57.306Z,20.80
2023-07-03T08:14:24.862Z,20.90
2023-07-03T08:16:52.578Z,21.10
2023-07-03T08:19:20.271Z,21.20
2023-07-03T08:21:47.781Z,20.90
2023-07-03T08:24:15.508Z,20.70
2023-07-03T08:26:50.248Z,20.70
2023-07-03T08:29:18.151Z,20.70
2023-07-03T08:31:45.752Z,21.00
2023-07-03T08:34:13.292Z,21.10
2023-07-03T08:39:11.109Z,20.90
2023-07-03T08:41:56.224Z,21.30
2023-07-03T08:44:23.889Z,21.40
2023-07-03T08:47:09.666Z,21.00
2023-07-03T08:49:39.318Z,21.00
2023-07-03T08:52:08.575Z,21.20
2023-07-03T08:54:38.898Z,21.10
2023-07-03T08:57:12.006Z,21.30
2023-07-03T08:59:39.990Z,21.50
2023-07-03T09:02:22.257Z,21.00
2023-07-03T09:05:38.558Z,21.30
2023-07-03T09:08:15.134Z,21.20
2023-07-03T09:10:51.034Z,21.50
2023-07-03T09:13:44.531Z,21.60
2023-07-03T09:16:22.697Z,21.10
2023-07-03T09:19:07.632Z,21.30
2023-07-03T09:21:36.950Z,21.70
2023-07-03T09:24:27.617Z,21.30
2023-07-03T09:27:24.807Z,21.70
2023-07-03T09:29:53.205Z,21.30
2023-07-03T09:32:31.718Z,21.30
2023-07-03T09:35:21.308Z,21.60
2023-07-03T09:37:59.536Z,21.70
2023-07-03T09:40:38.866Z,21.60
2023-07-03T09:43:27.198Z,21.60
2023-07-03T09:46:17.778Z,21.50
2023-07-03T09:48:45.933Z,21.60
2023-07-03T09:51:30.322Z,21.90
2023-07-03T09:54:06.996Z,22.20
2023-07-03T09:56:35.018Z,21.90
2023-07-03T09:59:06.897Z,22.30
2023-07-03T10:07:09.003Z,22.20
2023-07-03T10:12:45.569Z,22.10
2023-07-03T10:15:30.224Z,22.50
2023-07-03T10:18:15.210Z,22.10
2023-07-03T10:20:45.385Z,22.30
2023-07-03T10:23:29.077Z,22.50
2023-07-03T10:26:39.524Z,22.50
2023-07-03T10:29:27.591Z,22.20
2023-07-03T10:32:17.533Z,22.00
2023-07-03T10:35:29.487Z,22.00
2023-07-03T10:38:12.728Z,22.20
2023-07-03T10:40:56.959Z,22.30
2023-07-03T10:43:34.024Z,22.10
2023-07-03T10:46:03.477Z,22.00
2023-07-03T10:48:34.641Z,22.30
2023-07-03T10:51:48.226Z,22.20
2023-07-03T10:54:31.169Z,22.50
2023-07-03T10:57:06.625Z,23.10
2023-07-03T10:59:43.784Z,23.30
2023-07-03T11:02:42.725Z,23.00
2023-07-03T11:05:36.072Z,22.90
2023-07-03T11:08:55.864Z,23.40
2023-07-03T11:12:34.874Z,23.20
2023-07-03T11:16:03.806Z,22.80
2023-07-03T11:28:51.592Z,23.50
2023-07-03T11:31:21.241Z,23.10
2023-07-03T11:44:50.049Z,23.70
2023-07-03T11:47:32.267Z,23.40
2023-07-03T11:50:06.178Z,23.30
2023-07-03T11:52:42.477Z,24.10
2023-07-03T11:55:20.170Z,24.20
2023-07-03T11:58:14.517Z,24.10
2023-07-03T12:00:45.619Z,23.80
2023-07-03T12:03:15.685Z,23.70
2023-07-03T12:05:49.324Z,24.00
2023-07-03T12:08:19.626Z,24.10
2023-07-03T12:10:56.225Z,24.00
2023-07-03T12:13:47.655Z,24.40
2023-07-03T12:16:26.044Z,24.40
2023-07-03T12:19:11.551Z,24.30
2023-07-03T12:21:47.629Z,24.50
2023-07-03T12:24:33.448Z,24.70
2023-07-03T12:27:08.185Z,24.90
2023-07-03T12:29:49.369Z,25.00
2023-07-03T12:32:49.488Z,25.10
2023-07-03T12:35:28.485Z,24.90
2023-07-03T12:38:06.703Z,25.10
2023-07-03T12:40:41.873Z,25.20
2023-07-03T12:43:10.788Z,24.80
2023-07-03T12:45:38.459Z,24.90
2023-07-03T12:48:24.356Z,24.00
2023-07-03T12:50:57.857Z,24.90
2023-07-03T12:53:35.081Z,25.30
2023-07-03T12:56:10.522Z,25.10
2023-07-03T12:58:39.004Z,25.60
2023-07-03T13:01:09.300Z,24.90
2023-07-03T13:03:43.064Z,24.30
2023-07-03T13:06:29.493Z,25.30
2023-07-03T13:08:59.852Z,25.00
2023-07-03T13:11:46.097Z,24.20
2023-07-03T13:14:29.394Z,24.30
2023-07-03T13:17:02.487Z,24.60
2023-07-03T13:19:37.436Z,25.30
2023-07-03T13:22:19.509Z,25.00
2023-07-03T13:24:52.073Z,24.20
2023-07-03T13:27:28.245Z,24.20
2023-07-03T13:30:36.782Z,24.40
2023-07-03T13:33:15.168Z,24.40
2023-07-03T13:35:49.691Z,25.00
2023-07-03T13:38:27.726Z,24.70
2023-07-03T13:41:00.347Z,24.90
2023-07-03T13:43:33.652Z,25.00
2023-07-03T13:46:02.124Z,24.50
2023-07-03T13:48:30.654Z,24.20
2023-07-03T13:50:58.509Z,24.70
2023-07-03T13:53:27.748Z,24.80
2023-07-03T13:55:55.316Z,24.70
2023-07-03T13:58:22.879Z,24.90
2023-07-03T14:00:50.532Z,24.70
2023-07-03T14:03:18.294Z,23.90
2023-07-03T14:05:45.968Z,23.90
2023-07-03T14:08:13.780Z,24.10
2023-07-03T14:10:41.368Z,23.90
2023-07-03T14:13:11.010Z,23.80
2023-07-03T14:15:39.547Z,24.30
2023-07-03T14:18:07.188Z,24.40
2023-07-03T14:20:34.781Z,24.40
2023-07-03T14:23:04.508Z,24.10
2023-07-03T14:25:32.698Z,24.20
2023-07-03T14:28:01.396Z,23.70
2023-07-03T14:30:28.948Z,23.90
2023-07-03T14:32:56.763Z,23.80
2023-07-03T14:35:25.385Z,23.70
2023-07-03T14:37:53.234Z,23.80
2023-07-03T14:40:21.020Z,23.60
2023-07-03T14:42:48.773Z,23.50
2023-07-03T14:45:16.804Z,23.60
2023-07-03T14:47:44.406Z,24.10
2023-07-03T14:50:13.307Z,24.00
2023-07-03T14:52:49.265Z,23.80
2023-07-03T14:55:19.049Z,23.80
2023-07-03T14:57:46.990Z,23.70
2023-07-03T15:00:15.745Z,23.50
2023-07-03T15:02:47.235Z,24.00
2023-07-03T15:05:16.356Z,24.70
2023-07-03T15:07:49.945Z,25.50
2023-07-03T15:10:18.859Z,25.10
2023-07-03T15:12:47.233Z,25.50
2023-07-03T15:15:15.337Z,25.40
2023-07-03T15:17:43.107Z,26.00
2023-07-03T15:20:11.862Z,26.20
2023-07-03T15:22:39.348Z,26.30
2023-07-03T15:25:07.761Z,26.20
2023-07-03T15:27:35.373Z,26.20
2023-07-03T15:30:03.935Z,26.30
2023-07-03T15:32:32.818Z,26.50
2023-07-03T15:35:00.367Z,26.60
2023-07-03T15:37:27.975Z,26.70
2023-07-03T15:39:55.958Z,26.70
2023-07-03T15:42:24.307Z,26.80
2023-07-03T15:44:59.283Z,27.00
2023-07-03T15:47:27.844Z,27.10
2023-07-03T15:49:58.524Z,26.90
2023-07-03T15:52:26.863Z,27.00
2023-07-03T15:54:54.724Z,26.90
2023-07-03T15:57:22.944Z,26.70
2023-07-03T15:59:50.792Z,27.10
2023-07-03T16:02:18.367Z,27.10
2023-07-03T16:04:45.981Z,26.90
2023-07-03T16:07:13.483Z,26.60
2023-07-03T16:09:40.953Z,27.10
2023-07-03T16:12:08.631Z,27.20
2023-07-03T16:14:36.121Z,26.70
2023-07-03T16:17:03.678Z,26.80
2023-07-03T16:19:32.009Z,26.50
2023-07-03T16:21:59.526Z,26.30
2023-07-03T16:24:26.989Z,26.10
2023-07-03T16:26:54.460Z,27.00
2023-07-03T16:29:21.960Z,27.40
2023-07-03T16:31:49.619Z,27.40
2023-07-03T16:34:17.162Z,27.30
2023-07-03T16:36:44.608Z,26.70
2023-07-03T16:39:12.480Z,26.00
2023-07-03T16:41:40.935Z,25.80
2023-07-03T16:44:08.436Z,25.90
2023-07-03T16:46:39.580Z,25.40
2023-07-03T16:49:08.087Z,25.60
2023-07-03T16:51:35.583Z,25.50
2023-07-03T16:54:03.505Z,24.90
2023-07-03T16:56:31.115Z,25.00
2023-07-03T16:58:59.649Z,25.40
2023-07-03T17:01:30.877Z,25.30
2023-07-03T17:03:59.368Z,25.10
2023-07-03T17:06:36.406Z,25.00
2023-07-03T17:09:05.121Z,25.70
2023-07-03T17:11:32.838Z,26.10
2023-07-03T17:14:01.214Z,25.40
2023-07-03T17:16:29.988Z,25.60
2023-07-03T17:18:57.954Z,25.20
2023-07-03T17:21:26.556Z,25.30
2023-07-03T17:24:06.285Z,25.40
2023-07-03T17:26:34.424Z,24.90
2023-07-03T17:29:04.841Z,24.70
2023-07-03T17:31:32.937Z,24.90
2023-07-03T17:34:01.272Z,25.20
2023-07-03T17:36:29.428Z,24.80
2023-07-03T17:38:56.992Z,24.50
2023-07-03T17:41:24.965Z,24.70
2023-07-03T17:43:53.112Z,24.90
2023-07-03T17:46:20.627Z,24.60
2023-07-03T17:48:48.503Z,24.50
2023-07-03T17:51:16.102Z,24.60
2023-07-03T17:53:45.739Z,24.50
2023-07-03T17:56:13.993Z,24.40
2023-07-03T17:58:43.923Z,24.40
2023-07-03T18:01:13.104Z,24.40
2023-07-03T18:03:41.578Z,24.50
2023-07-03T18:06:13.652Z,24.60
2023-07-03T18:08:41.640Z,24.70
2023-07-03T18:11:09.265Z,24.50
2023-07-03T18:13:37.665Z,24.20
2023-07-03T18:16:05.499Z,24.10
2023-07-03T18:18:33.183Z,24.20
2023-07-03T18:21:01.110Z,24.00
2023-07-03T18:23:28.784Z,23.90
2023-07-03T18:25:56.813Z,24.10
2023-07-03T18:28:25.205Z,23.90
2023-07-03T18:31:04.450Z,23.90
2023-07-03T18:33:34.908Z,23.70
2023-07-03T18:36:03.408Z,23.70
2023-07-03T18:38:31.745Z,23.90
2023-07-03T18:41:06.864Z,23.80
2023-07-03T18:43:34.642Z,23.80
2023-07-03T18:46:02.222Z,23.70
2023-07-03T18:48:29.848Z,23.60
2023-07-03T18:50:57.375Z,23.70
2023-07-03T18:53:25.411Z,23.70
2023-07-03T18:55:54.202Z,23.50
2023-07-03T18:58:21.977Z,23.60
2023-07-03T19:00:50.105Z,23.50
2023-07-03T19:03:17.914Z,23.60
2023-07-03T19:06:09.829Z,23.60
2023-07-03T19:08:37.913Z,23.50
2023-07-03T19:11:07.775Z,23.80
2023-07-03T19:13:35.800Z,23.60
2023-07-03T19:16:03.514Z,23.50
2023-07-03T19:18:31.278Z,23.80
2023-07-03T19:20:58.732Z,23.70
2023-07-03T19:23:26.670Z,23.70
2023-07-03T19:26:00.126Z,23.70
2023-07-03T19:28:27.990Z,23.60
2023-07-03T19:31:00.675Z,23.40
2023-07-03T19:33:31.002Z,23.30
2023-07-03T19:36:00.557Z,23.30
2023-07-03T19:38:28.635Z,22.90
2023-07-03T19:40:57.055Z,22.90
2023-07-03T19:43:24.510Z,22.90
2023-07-03T19:45:52.078Z,22.90
2023-07-03T19:48:19.731Z,23.10
2023-07-03T19:50:49.187Z,22.70
2023-07-03T19:53:17.708Z,22.90
2023-07-03T19:55:45.739Z,22.80
2023-07-03T19:58:13.585Z,22.60
2023-07-03T20:00:41.433Z,22.50
2023-07-03T20:03:11.500Z,22.40
2023-07-03T20:05:42.828Z,22.50
2023-07-03T20:08:10.297Z,22.70
2023-07-03T20:10:39.005Z,22.70
2023-07-03T20:13:06.605Z,22.60
2023-07-03T20:15:34.105Z,22.60
2023-07-03T20:18:01.764Z,22.60
2023-07-03T20:20:29.625Z,22.70
2023-07-03T20:22:58.176Z,22.60
2023-07-03T20:25:25.901Z,22.90
2023-07-03T20:27:54.397Z,22.90
2023-07-03T20:30:22.447Z,22.90
2023-07-03T20:32:50.099Z,23.00
2023-07-03T20:35:19.209Z,23.10
2023-07-03T20:37:46.859Z,22.70
2023-07-03T20:40:14.514Z,22.80
2023-07-03T20:42:42.367Z,22.70
2023-07-03T20:45:11.417Z,22.10
2023-07-03T20:47:39.045Z,22.20
2023-07-03T20:50:07.949Z,22.40
2023-07-03T20:52:41.059Z,22.70
2023-07-03T20:55:36.663Z,22.50
2023-07-03T20:58:04.385Z,22.60
2023-07-03T21:00:32.014Z,22.50
2023-07-03T21:02:59.675Z,22.20
2023-07-03T21:05:27.989Z,22.30
2023-07-03T21:07:56.395Z,22.30
2023-07-03T21:10:23.840Z,22.30
2023-07-03T21:12:51.322Z,22.40
2023-07-03T21:15:20.059Z,22.60
2023-07-03T21:17:48.237Z,22.50
2023-07-03T21:20:15.842Z,22.40
2023-07-03T21:22:43.305Z,22.30
2023-07-03T21:25:12.027Z,22.70
2023-07-03T21:27:39.470Z,22.60
2023-07-03T21:30:08.371Z,22.50
2023-07-03T21:32:36.724Z,22.50
2023-07-03T21:35:04.469Z,22.50
2023-07-03T21:37:32.829Z,22.70
2023-07-03T21:40:00.398Z,22.30
2023-07-03T21:42:27.892Z,22.30
2023-07-03T21:44:55.373Z,22.30
2023-07-03T21:47:22.929Z,22.20
2023-07-03T21:49:50.617Z,22.20
2023-07-03T21:52:18.074Z,22.10
2023-07-03T21:54:48.833Z,22.20
2023-07-03T21:57:19.373Z,22.30
2023-07-03T21:59:50.394Z,22.20
2023-07-03T22:02:17.933Z,22.20
2023-07-03T22:04:45.600Z,22.30
2023-07-03T22:07:13.786Z,22.30
2023-07-03T22:09:41.302Z,22.30
2023-07-03T22:12:12.965Z,22.40
2023-07-03T22:14:40.774Z,22.40
2023-07-03T22:17:08.400Z,22.40
2023-07-03T22:19:39.794Z,22.30
2023-07-03T22:22:08.441Z,22.30
2023-07-03T22:24:35.961Z,22.30
2023-07-03T22:27:07.184Z,22.30
2023-07-03T22:29:36.795Z,22.00
2023-07-03T22:32:04.842Z,21.90
2023-07-03T22:34:32.360Z,22.00
2023-07-03T22:36:59.845Z,21.70
2023-07-03T22:39:27.333Z,21.80
2023-07-03T22:41:54.833Z,21.40
2023-07-03T22:44:22.332Z,21.70
2023-07-03T22:46:53.575Z,21.80
2023-07-03T22:49:25.517Z,21.80
2023-07-03T22:51:53.681Z,21.80
2023-07-03T22:54:22.973Z,21.80
2023-07-03T22:56:50.728Z,21.40
2023-07-03T22:59:18.329Z,21.30
2023-07-03T23:01:49.581Z,21.00
2023-07-03T23:04:17.905Z,21.00
2023-07-03T23:06:47.234Z,20.70
2023-07-03T23:09:17.958Z,20.90
2023-07-03T23:11:45.644Z,20.60
2023-07-03T23:14:16.782Z,20.80
2023-07-03T23:16:47.531Z,20.50
2023-07-03T23:19:17.896Z,20.40
2023-07-03T23:21:53.084Z,20.20
2023-07-03T23:24:21.955Z,20.10
2023-07-03T23:26:53.769Z,20.20
2023-07-03T23:29:22.315Z,20.10
2023-07-03T23:31:51.019Z,20.10
2023-07-03T23:34:18.824Z,20.40
2023-07-03T23:36:49.661Z,20.20
2023-07-03T23:39:19.260Z,20.50
2023-07-03T23:41:47.233Z,20.30
2023-07-03T23:44:15.914Z,20.30
2023-07-03T23:46:43.492Z,20.40
2023-07-03T23:49:11.324Z,20.40
2023-07-03T23:51:38.821Z,20.40
2023-07-03T23:54:07.080Z,20.70
2023-07-03T23:56:35.479Z,20.80
2023-07-03T23:59:05.053Z,20.70
